Motoplanete

Classement Monster Energy Grand Prix de République Tchèque Moto2 2015

Course disputée sur le circuit de Automotodrom Brno

Position Numéro Pilote Team Temps Tours Points Départ
1 5 Johann Zarco Ajo Motorsport 13:01:40 20 25 1
2 1 Tito Rabat Eg 0,0 Marc Vds 13:25:21 20 20 2
3 40 Alex Rins Paginas Amarillas Hp 40 13:31:25 20 16 3
4 73 Alex Marquez Eg 0,0 Marc Vds 14:14:53 20 13 7
5 22 Sam Lowes Speed Up 15:12:24 20 11 13
6 94 Jonas Folger Agr Team 15:15:56 20 10 10
7 12 Thomas Luthi Derendinger Racing Interwetten 15:46:22 20 9 5
8 11 Sandro Cortese Dynavolt Intact Gp 15:49:34 20 8 4
9 39 Luis Salom Paginas Amarillas Hp 40 16:20:21 20 7 15
10 21 Franco Morbidelli Italtrans Racing Team 16:29:39 20 6 8
11 3 Simone Corsi Athinà Forward Racing 17:56:34 20 5 12
12 30 Takaaki Nakagami Idemitsu Honda Team Asia 17:57:43 20 4 16
13 77 Dominique Aegerter Technomag Racing Interwetten 18:07:32 20 3 6
14 55 Hafizh Syahrin Petronas Raceline Malaysia 18:10:22 20 2 17
15 36 Mika Kallio Italtrans Racing Team 18:24:37 20 1 18
16 19 Xavier Simeon Federal Oil Gresini Moto2 18:48:31 20 0 19
17 49 Alex Pons Agr Team 18:56:12 20 0 9
18 60 Julian Simon QMMF Racing Team 19:10:19 20 0 22
19 23 Marcel Schrotter Tech 3 20:14:06 20 0 21
20 4 Randy Krummenacher Jir Racing Team 20:24:46 20 0 14
21 95 Anthony West QMMF Racing Team 23:58:45 20 0 23
22 57 Edgar Pons Paginas Amarillas Hp 40 01:19:50 20 0 27
23 25 Azlan Shah Idemitsu Honda Team Asia 01:25:57 20 0 25
24 88 Ricard Cardus Tech 3 01:27:27 20 0 28
25 10 Thitipong Warokorn Aph Ptt The Pizza Sag 02:04:20 20 0 26
26 2 Jesko Raffin Sports-millions-emwe-sag 03:54:07 20 0 31
27 97 Xavi Vierge Tech 3 15:36:22 16 0 30
28 66 Florian Alt Octo Iodaracing Team 16:36:58 12 0 29
29 7 Lorenzo Baldassarri Athinà Forward Racing 07:27:11 12 0 11
30 96 Louis Rossi Tasca Racing Scuderia Moto2 09:39:43 11 0 20
31 70 Robin Mulhauser Technomag Racing Interwetten 11:09:14 3 0 24